Kings Mills, Ohio
Current Conditions -  °F | °C
As of 8:53 PM on Saturday 22 Nov 2014 (Local Time) from KHAO Reporting Station
Overcast Overcast  
Wind Chill: 57°   Ceiling: 7000
Heat Index: 57°   Visibility: 10mi
Dew Point: 34°   Wind: 7mph
Humidity: 42%   Direction: 200°SSW
Pressure: 30.08"   Gusts: NA
Location:  39.36°N, 84.25°W
Report Text: KHAO 230153Z AUTO 20006KT 10SM OVC070 14/01 A3008 RMK AO2 SLP190 T01390011
Loading
Personal Weather Stations






























Interactive Weather Map New forecast layout! Learn more

10-Day Weather Forecast

Advertisements
Track Severe Weather on mobile